Time;durP1;ratioP1;P1;durP2;ratioP2;P2;SDS_P1;SDS_P2;PMS_P1;PMS_P2;Temp;Humidity;BMP_temperature;BMP_pressure;BME280_temperature;BME280_humidity;BME280_pressure;Samples;Min_cycle;Max_cycle;Signal;HPM_P1;HPM_P2
2024/01/18 00:00:11;;;;;;;73.53;39.90;;;;;;;1.71;97.02;99106.91;5033781;28;20021;-68
2024/01/18 00:02:36;;;;;;;77.45;38.95;;;;;;;1.76;96.40;99110.44;5084521;28;20511;-68
2024/01/18 00:05:09;;;;;;;70.28;39.40;;;;;;;1.93;96.46;99112.00;5091886;28;20453;-69
2024/01/18 00:07:42;;;;;;;70.32;39.05;;;;;;;1.84;95.55;99105.44;5090081;28;20497;-68
2024/01/18 00:10:08;;;;;;;76.60;39.75;;;;;;;1.71;96.06;99104.13;5073523;28;20028;-69
2024/01/18 00:12:36;;;;;;;74.25;39.63;;;;;;;1.71;96.60;99095.88;5091675;28;20048;-68
2024/01/18 00:15:02;;;;;;;66.53;36.50;;;;;;;1.80;95.80;99106.00;5035123;28;20104;-68
2024/01/18 00:17:27;;;;;;;72.28;37.95;;;;;;;1.74;96.13;99092.53;5051584;28;20083;-68
2024/01/18 00:19:53;;;;;;;74.82;39.63;;;;;;;1.60;96.56;99097.88;5050104;28;20480;-69
2024/01/18 00:22:18;;;;;;;73.60;39.95;;;;;;;1.56;98.05;99092.09;5051485;28;20035;-68
2024/01/18 00:24:44;;;;;;;76.28;38.45;;;;;;;1.70;97.19;99086.78;5051424;28;20429;-68
2024/01/18 00:27:09;;;;;;;79.35;41.38;;;;;;;1.59;97.61;99080.50;5051339;28;20028;-69
2024/01/18 00:29:35;;;;;;;78.68;43.55;;;;;;;1.65;98.33;99076.59;5060008;28;20121;-68
2024/01/18 00:32:00;;;;;;;79.90;43.17;;;;;;;1.68;98.15;99078.78;5069814;28;20024;-69
2024/01/18 00:34:26;;;;;;;79.43;43.03;;;;;;;1.73;98.19;99064.16;5071305;28;20493;-69
2024/01/18 00:36:51;;;;;;;86.10;46.10;;;;;;;1.93;97.70;99073.38;5053232;28;20031;-69
2024/01/18 00:39:19;;;;;;;84.80;45.28;;;;;;;1.79;97.98;99071.25;5071233;28;20020;-69
2024/01/18 00:41:46;;;;;;;92.03;46.42;;;;;;;2.06;97.12;99074.66;5052907;28;20027;-69
2024/01/18 00:44:11;;;;;;;89.00;44.70;;;;;;;2.16;96.53;99065.47;5069972;28;20028;-69
2024/01/18 00:46:37;;;;;;;82.13;43.60;;;;;;;2.23;96.35;99065.97;5056819;28;20107;-68
2024/01/18 00:49:02;;;;;;;80.72;44.47;;;;;;;2.03;96.77;99073.28;5058131;28;20025;-68
2024/01/18 00:51:27;;;;;;;79.50;46.00;;;;;;;2.08;96.95;99050.34;5069834;28;20067;-69
2024/01/18 00:53:53;;;;;;;78.03;42.45;;;;;;;2.16;97.28;99054.44;5071005;28;20032;-68
2024/01/18 00:56:18;;;;;;;78.57;44.75;;;;;;;2.24;96.66;99056.56;5052989;28;20489;-68
2024/01/18 00:58:44;;;;;;;82.90;43.60;;;;;;;2.28;96.01;99043.84;5052979;28;20036;-68
2024/01/18 01:01:10;;;;;;;83.97;45.60;;;;;;;1.65;98.67;99051.78;5050573;28;20032;-69
2024/01/18 01:03:36;;;;;;;85.78;46.28;;;;;;;1.17;100.00;99040.50;5070920;28;20544;-68
2024/01/18 01:06:02;;;;;;;95.72;50.75;;;;;;;1.72;100.00;99045.97;5037620;28;20060;-72
2024/01/18 01:08:27;;;;;;;91.70;49.67;;;;;;;1.24;100.00;99046.50;5050828;28;20024;-73
2024/01/18 01:10:53;;;;;;;93.13;46.50;;;;;;;1.01;100.00;99034.22;5050408;28;20044;-72
2024/01/18 01:13:18;;;;;;;74.60;38.20;;;;;;;1.13;100.00;99026.47;5032774;28;20072;-72
2024/01/18 01:15:44;;;;;;;69.13;39.13;;;;;;;1.50;100.00;99027.91;5050671;28;20104;-73
2024/01/18 01:18:10;;;;;;;75.22;40.65;;;;;;;1.30;100.00;99025.25;5050729;28;20036;-73
2024/01/18 01:20:36;;;;;;;67.80;34.08;;;;;;;1.34;100.00;99023.59;5042229;28;20068;-72
2024/01/18 01:23:02;;;;;;;63.88;31.30;;;;;;;1.31;100.00;99019.47;5068193;28;20513;-73
2024/01/18 01:25:28;;;;;;;59.20;32.67;;;;;;;1.10;100.00;99024.28;5052663;28;20025;-72
2024/01/18 01:27:53;;;;;;;54.90;31.85;;;;;;;1.10;100.00;99024.28;5071056;28;20138;-73
2024/01/18 01:30:19;;;;;;;57.05;32.90;;;;;;;0.84;100.00;99027.13;5063682;28;20028;-72
2024/01/18 01:32:44;;;;;;;52.97;30.88;;;;;;;0.78;100.00;99018.03;5050441;28;20100;-72
2024/01/18 01:35:11;;;;;;;64.32;32.72;;;;;;;0.72;100.00;99018.34;5050492;28;20027;-72
2024/01/18 01:37:37;;;;;;;58.67;32.28;;;;;;;0.84;100.00;99021.59;5041655;28;20403;-73
2024/01/18 01:40:05;;;;;;;55.95;29.95;;;;;;;0.97;100.00;99025.69;5044567;28;20050;-72
2024/01/18 01:42:30;;;;;;;58.53;31.45;;;;;;;0.93;100.00;99014.41;5070380;28;20409;-72
2024/01/18 01:44:56;;;;;;;59.50;31.95;;;;;;;0.84;100.00;99010.59;5052746;28;20025;-73
2024/01/18 01:47:21;;;;;;;52.58;31.15;;;;;;;1.02;100.00;99005.56;5070381;28;20035;-73
2024/01/18 01:49:48;;;;;;;56.92;32.25;;;;;;;0.98;100.00;99002.56;5070461;28;20477;-73
2024/01/18 01:52:15;;;;;;;60.95;32.78;;;;;;;1.06;100.00;98995.63;5038013;28;20131;-72
2024/01/18 01:54:41;;;;;;;52.80;30.77;;;;;;;1.09;100.00;98989.56;5051294;28;20112;-72
2024/01/18 01:57:07;;;;;;;56.40;31.95;;;;;;;1.14;100.00;99003.31;5050441;28;20032;-72
2024/01/18 01:59:34;;;;;;;53.05;29.38;;;;;;;1.27;100.00;98996.34;5050380;28;20025;-73
2024/01/18 02:02:00;;;;;;;54.60;30.45;;;;;;;1.25;100.00;98990.28;5050157;28;20033;-72
2024/01/18 02:04:26;;;;;;;57.95;29.83;;;;;;;1.30;100.00;98987.50;5033703;28;20429;-73
2024/01/18 02:06:56;;;;;;;59.42;30.40;;;;;;;1.05;100.00;98980.22;5053805;28;20024;-72
2024/01/18 02:09:22;;;;;;;52.40;29.67;;;;;;;1.19;100.00;98977.66;5052767;28;20021;-73
2024/01/18 02:11:47;;;;;;;49.10;29.25;;;;;;;1.37;100.00;98978.94;5072119;28;20428;-72
2024/01/18 02:14:13;;;;;;;49.72;28.38;;;;;;;1.33;100.00;98975.09;5055767;28;20024;-73
2024/01/18 02:16:39;;;;;;;55.20;30.17;;;;;;;1.40;100.00;98984.69;5072477;28;20039;-69
2024/01/18 02:19:04;;;;;;;55.67;30.02;;;;;;;1.18;100.00;98974.06;5072411;28;20485;-69
2024/01/18 02:21:30;;;;;;;55.40;31.88;;;;;;;1.21;100.00;98973.53;5076347;28;20038;-69
2024/01/18 02:24:21;;;;;;;59.08;31.38;;;;;;;1.19;100.00;98975.72;5053708;28;20476;-68
2024/01/18 02:26:47;;;;;;;56.55;32.10;;;;;;;1.12;100.00;98965.00;5053425;28;20100;-68
2024/01/18 02:29:12;;;;;;;57.13;32.55;;;;;;;1.21;100.00;98964.41;5055556;28;20481;-69
2024/01/18 02:31:38;;;;;;;49.58;30.55;;;;;;;1.21;100.00;98954.22;5055362;28;20067;-69
2024/01/18 02:34:10;;;;;;;56.60;33.20;;;;;;;1.21;100.00;98959.75;5055478;28;20028;-68
2024/01/18 02:36:35;;;;;;;53.72;31.98;;;;;;;1.23;100.00;98954.75;5065636;28;20071;-69
2024/01/18 02:39:02;;;;;;;57.28;33.50;;;;;;;1.18;100.00;98957.53;5067552;28;20393;-68
2024/01/18 02:41:28;;;;;;;64.10;32.70;;;;;;;1.20;100.00;98947.03;5073373;28;20029;-69
2024/01/18 02:43:54;;;;;;;65.85;34.10;;;;;;;1.25;100.00;98954.47;5046293;28;20055;-68
2024/01/18 02:46:19;;;;;;;57.78;33.58;;;;;;;1.13;100.00;98941.06;5051972;28;20028;-68
2024/01/18 02:48:45;;;;;;;57.83;32.05;;;;;;;1.02;100.00;98944.97;5053105;28;20031;-68
2024/01/18 02:51:10;;;;;;;55.15;33.65;;;;;;;1.15;100.00;98944.34;5067933;28;20459;-69
2024/01/18 02:53:36;;;;;;;54.42;30.77;;;;;;;1.14;100.00;98939.94;5052951;28;20021;-68
2024/01/18 02:56:02;;;;;;;61.42;33.92;;;;;;;1.17;100.00;98928.34;5053101;28;20508;-69
2024/01/18 02:58:27;;;;;;;63.90;34.58;;;;;;;1.39;100.00;98921.56;5053065;28;20021;-68
2024/01/18 03:00:52;;;;;;;68.25;36.65;;;;;;;1.55;100.00;98916.78;5055648;28;20032;-68
2024/01/18 03:03:19;;;;;;;59.63;35.25;;;;;;;1.70;100.00;98913.06;5053224;28;20524;-69
2024/01/18 03:05:45;;;;;;;65.03;34.65;;;;;;;1.85;100.00;98928.63;5034942;28;20117;-68
2024/01/18 03:08:10;;;;;;;58.47;33.55;;;;;;;1.94;100.00;98920.56;5052929;28;20096;-68
2024/01/18 03:10:36;;;;;;;61.15;33.42;;;;;;;2.05;100.00;98913.84;5052627;28;20029;-68
2024/01/18 03:13:01;;;;;;;58.60;31.27;;;;;;;2.19;100.00;98922.22;5034811;28;20056;-69
2024/01/18 03:15:27;;;;;;;65.50;33.50;;;;;;;2.05;100.00;98897.28;5033780;28;20029;-69
2024/01/18 03:17:52;;;;;;;52.35;30.65;;;;;;;2.18;100.00;98894.94;5066636;28;20025;-68
2024/01/18 03:20:18;;;;;;;56.40;31.23;;;;;;;2.20;100.00;98895.47;5066454;28;20028;-68
2024/01/18 03:22:43;;;;;;;56.65;32.40;;;;;;;2.28;100.00;98900.31;5065341;28;20036;-69
2024/01/18 03:25:09;;;;;;;51.58;30.40;;;;;;;2.33;100.00;98894.75;5054637;28;20028;-70
2024/01/18 03:27:35;;;;;;;58.10;34.05;;;;;;;2.29;100.00;98887.34;5072390;28;20049;-69
2024/01/18 03:30:00;;;;;;;57.55;32.10;;;;;;;2.13;100.00;98895.81;5054449;28;20035;-70
2024/01/18 03:32:26;;;;;;;65.40;32.22;;;;;;;2.21;100.00;98861.22;5034541;28;20029;-70
2024/01/18 03:34:52;;;;;;;62.88;32.90;;;;;;;2.07;100.00;98875.72;5045674;28;20059;-70
2024/01/18 03:37:17;;;;;;;65.90;36.13;;;;;;;1.84;100.00;98871.03;5054122;28;20508;-70
2024/01/18 03:39:43;;;;;;;64.10;35.33;;;;;;;1.33;100.00;98873.13;5054334;28;20020;-70
2024/01/18 03:42:09;;;;;;;69.05;36.95;;;;;;;1.70;100.00;98882.72;5054204;28;20386;-70
2024/01/18 03:44:34;;;;;;;68.28;39.03;;;;;;;1.65;100.00;98877.25;5054128;28;20025;-70
2024/01/18 03:47:00;;;;;;;73.28;41.42;;;;;;;1.31;100.00;98875.34;5037661;28;20032;-70
2024/01/18 03:49:26;;;;;;;76.15;40.42;;;;;;;1.64;100.00;98875.59;5054673;28;20078;-70
2024/01/18 03:51:52;;;;;;;63.58;38.10;;;;;;;1.85;100.00;98873.47;5048577;28;20128;-70
2024/01/18 03:54:18;;;;;;;67.97;38.15;;;;;;;2.04;100.00;98869.97;5060826;28;20035;-70
2024/01/18 03:56:44;;;;;;;64.38;35.67;;;;;;;2.03;100.00;98873.84;5053993;28;20532;-70
2024/01/18 03:59:13;;;;;;;60.97;35.08;;;;;;;2.19;100.00;98871.75;5053804;28;20183;-70
2024/01/18 04:01:39;;;;;;;65.68;37.75;;;;;;;2.23;100.00;98864.50;5053888;28;20074;-70
2024/01/18 04:04:04;;;;;;;77.43;39.75;;;;;;;2.28;100.00;98881.00;5071964;28;20029;-70
2024/01/18 04:06:49;;;;;;;76.18;39.10;;;;;;;2.36;100.00;98885.88;5058783;28;20149;-70
2024/01/18 04:09:14;;;;;;;62.45;35.20;;;;;;;2.36;100.00;98877.59;5033579;28;20043;-70
2024/01/18 04:11:41;;;;;;;63.85;36.00;;;;;;;2.34;100.00;98879.84;5051629;28;20044;-70
2024/01/18 04:14:07;;;;;;;63.58;36.78;;;;;;;2.14;100.00;98877.31;5050324;28;20528;-70
2024/01/18 04:16:33;;;;;;;63.03;35.60;;;;;;;1.96;100.00;98897.06;5065967;28;20055;-70
2024/01/18 04:18:59;;;;;;;60.67;35.67;;;;;;;1.97;100.00;98922.72;5073823;28;20038;-70
2024/01/18 04:21:24;;;;;;;67.63;40.33;;;;;;;1.77;100.00;98888.72;5066137;28;20425;-70
2024/01/18 04:23:50;;;;;;;74.75;41.35;;;;;;;1.73;100.00;98898.69;5061419;28;20025;-70
2024/01/18 04:26:16;;;;;;;58.65;35.22;;;;;;;1.34;100.00;98885.81;5051556;28;20021;-70
2024/01/18 04:28:42;;;;;;;65.85;38.47;;;;;;;1.61;100.00;98877.00;5051039;28;20394;-70
2024/01/18 04:31:08;;;;;;;64.15;36.10;;;;;;;1.93;100.00;98883.88;5050031;28;20383;-70
2024/01/18 04:33:33;;;;;;;66.30;35.35;;;;;;;2.04;100.00;98862.50;5051205;28;20204;-70
2024/01/18 04:35:59;;;;;;;61.88;35.03;;;;;;;2.18;100.00;98875.63;5059168;28;20047;-68
2024/01/18 04:38:24;;;;;;;58.22;34.55;;;;;;;2.23;100.00;98868.09;5068909;28;20025;-69
2024/01/18 04:40:50;;;;;;;67.20;38.97;;;;;;;2.23;100.00;98875.53;5051199;28;20029;-69
2024/01/18 04:43:16;;;;;;;63.72;35.83;;;;;;;2.27;100.00;98876.59;5049737;28;20508;-68
2024/01/18 04:45:42;;;;;;;64.90;34.60;;;;;;;2.19;100.00;98885.53;5055213;28;20012;-69
2024/01/18 04:48:07;;;;;;;61.65;36.25;;;;;;;2.08;100.00;98895.84;5071124;28;20025;-68
2024/01/18 04:50:33;;;;;;;64.03;37.58;;;;;;;2.24;100.00;98880.78;5070655;28;20021;-69
2024/01/18 04:53:00;;;;;;;67.75;37.20;;;;;;;2.38;100.00;98880.06;5052908;28;20032;-69
2024/01/18 04:55:26;;;;;;;64.22;36.42;;;;;;;2.49;100.00;98878.00;5037778;28;20021;-68
2024/01/18 04:57:51;;;;;;;86.70;49.25;;;;;;;2.65;100.00;98896.03;5052890;28;20035;-69
2024/01/18 05:00:17;;;;;;;75.85;41.90;;;;;;;2.59;100.00;98886.16;5052866;28;20027;-68
2024/01/18 05:02:44;;;;;;;89.38;47.22;;;;;;;2.46;100.00;98864.78;5052938;28;20020;-69
2024/01/18 05:05:10;;;;;;;87.88;44.08;;;;;;;2.60;100.00;98871.22;5070798;28;20135;-69
2024/01/18 05:07:42;;;;;;;92.30;51.92;;;;;;;2.66;100.00;98883.00;5046512;28;20049;-69
2024/01/18 05:10:09;;;;;;;110.65;60.83;;;;;;;2.64;100.00;98880.53;5050799;28;20025;-69
2024/01/18 05:12:35;;;;;;;94.22;50.58;;;;;;;2.76;100.00;98887.56;5050650;28;20053;-69
2024/01/18 05:15:01;;;;;;;73.63;37.78;;;;;;;2.74;100.00;98873.25;5049585;28;20490;-69
2024/01/18 05:17:37;;;;;;;82.10;40.08;;;;;;;2.62;100.00;98857.94;5052317;28;20044;-69
2024/01/18 05:20:06;;;;;;;80.25;42.00;;;;;;;2.79;100.00;98881.47;5052830;28;20025;-69
2024/01/18 05:22:33;;;;;;;87.28;44.60;;;;;;;2.65;100.00;98887.75;5058470;28;20110;-69
2024/01/18 05:24:59;;;;;;;87.22;46.05;;;;;;;2.67;100.00;98877.22;5068076;28;20029;-69
2024/01/18 05:27:28;;;;;;;77.68;43.60;;;;;;;2.65;100.00;98871.16;5070299;28;20099;-68
2024/01/18 05:29:54;;;;;;;84.90;45.78;;;;;;;2.55;100.00;98859.41;5042461;28;20394;-69
2024/01/18 05:32:22;;;;;;;81.03;43.40;;;;;;;2.61;100.00;98864.56;5038306;28;20500;-71
2024/01/18 05:34:48;;;;;;;75.28;41.85;;;;;;;2.42;100.00;98853.50;5049344;28;20020;-69
2024/01/18 05:37:14;;;;;;;70.63;41.25;;;;;;;1.95;100.00;98867.03;5058445;28;20087;-69
2024/01/18 05:39:40;;;;;;;71.20;40.45;;;;;;;2.18;100.00;98875.63;5063259;28;20048;-69
2024/01/18 05:42:06;;;;;;;76.70;41.78;;;;;;;2.15;100.00;98871.50;5048524;28;20052;-68
2024/01/18 05:44:31;;;;;;;75.50;41.67;;;;;;;2.44;100.00;98884.41;5055105;28;20408;-69
2024/01/18 05:46:56;;;;;;;72.70;40.92;;;;;;;2.59;100.00;98888.91;5071630;28;20033;-72
2024/01/18 05:49:22;;;;;;;80.25;46.50;;;;;;;2.59;100.00;98877.03;5074160;28;20030;-73
2024/01/18 05:51:48;;;;;;;90.35;52.40;;;;;;;2.73;100.00;98893.69;5068409;28;20021;-73
2024/01/18 05:54:13;;;;;;;90.53;52.75;;;;;;;2.79;100.00;98895.28;5062616;28;20021;-74
2024/01/18 05:56:53;;;;;;;93.80;55.05;;;;;;;2.57;100.00;98909.63;5059180;28;20405;-74
2024/01/18 05:59:19;;;;;;;102.32;57.55;;;;;;;2.61;100.00;98900.47;5036161;28;20425;-74
2024/01/18 06:01:44;;;;;;;107.43;59.05;;;;;;;2.71;100.00;98901.47;5062210;28;20031;-74
2024/01/18 06:04:10;;;;;;;114.60;61.35;;;;;;;2.77;100.00;98903.84;5051961;28;20110;-74
2024/01/18 06:06:35;;;;;;;107.45;58.30;;;;;;;2.77;100.00;98878.16;5052779;28;20079;-73
2024/01/18 06:09:01;;;;;;;107.45;58.92;;;;;;;2.75;100.00;98872.13;5053872;28;20033;-73
2024/01/18 06:12:08;;;;;;;111.50;57.83;;;;;;;2.83;100.00;98878.91;5053742;28;20060;-78
2024/01/18 06:14:33;;;;;;;108.47;55.33;;;;;;;2.83;100.00;98882.50;5052421;28;20036;-74
2024/01/18 06:16:59;;;;;;;94.72;54.60;;;;;;;2.84;100.00;98880.59;5053790;28;20033;-75
2024/01/18 06:19:25;;;;;;;98.05;55.63;;;;;;;2.57;100.00;98899.44;5055678;28;20033;-76
2024/01/18 06:21:51;;;;;;;101.22;56.33;;;;;;;2.66;100.00;98903.19;5073520;28;20035;-75
2024/01/18 06:24:17;;;;;;;112.70;59.28;;;;;;;1.82;100.00;98913.50;5055197;28;20020;-74
2024/01/18 06:26:42;;;;;;;106.65;61.15;;;;;;;1.60;100.00;98918.66;5046662;28;20024;-74
2024/01/18 06:29:07;;;;;;;116.60;62.70;;;;;;;1.85;100.00;98897.47;5052977;28;20489;-75
2024/01/18 06:31:33;;;;;;;106.35;61.28;;;;;;;1.84;100.00;98907.69;5069337;28;20029;-77
2024/01/18 06:33:59;;;;;;;94.80;55.92;;;;;;;2.09;100.00;98903.84;5048224;28;20513;-77
2024/01/18 06:36:24;;;;;;;90.57;51.55;;;;;;;2.31;100.00;98897.00;5044206;28;20466;-76
2024/01/18 06:38:50;;;;;;;79.00;49.08;;;;;;;2.34;100.00;98907.44;5071441;28;20036;-72
2024/01/18 06:41:16;;;;;;;70.40;40.30;;;;;;;2.19;100.00;98907.63;5054132;28;20029;-78
2024/01/18 06:43:42;;;;;;;71.45;41.33;;;;;;;2.42;100.00;98908.72;5051904;28;20033;-76
2024/01/18 06:46:15;;;;;;;82.45;47.95;;;;;;;2.45;100.00;98897.06;5069237;28;20169;-72
2024/01/18 06:48:41;;;;;;;94.78;54.95;;;;;;;2.58;100.00;98909.34;5068289;28;20385;-71
2024/01/18 06:51:07;;;;;;;112.45;67.30;;;;;;;2.61;100.00;98905.19;5059306;28;20029;-73
2024/01/18 06:53:32;;;;;;;152.02;86.40;;;;;;;2.42;100.00;98913.44;5052996;28;20124;-72
2024/01/18 06:55:58;;;;;;;154.05;87.70;;;;;;;2.52;100.00;98913.28;5048152;28;20024;-71
2024/01/18 06:58:23;;;;;;;131.70;75.63;;;;;;;2.55;100.00;98904.44;5062952;28;20024;-71
2024/01/18 07:00:48;;;;;;;134.25;75.50;;;;;;;2.48;100.00;98904.78;5040010;28;20024;-70
2024/01/18 07:03:14;;;;;;;109.30;66.40;;;;;;;2.49;100.00;98909.19;5062734;28;20035;-70
2024/01/18 07:05:40;;;;;;;112.93;62.53;;;;;;;2.47;100.00;98916.94;5052544;28;20032;-70
2024/01/18 07:08:05;;;;;;;90.93;55.50;;;;;;;2.30;100.00;98917.44;5051535;28;20094;-71
2024/01/18 07:10:31;;;;;;;99.20;58.63;;;;;;;2.21;100.00;98925.50;5052173;28;20017;-70
2024/01/18 07:12:56;;;;;;;97.22;59.42;;;;;;;2.10;100.00;98918.44;5051620;28;20082;-71
2024/01/18 07:15:22;;;;;;;101.88;58.17;;;;;;;1.94;100.00;98904.81;5034335;28;20025;-72
2024/01/18 07:17:47;;;;;;;100.07;55.22;;;;;;;1.96;100.00;98899.84;5064399;28;20115;-72
2024/01/18 07:20:13;;;;;;;93.47;53.55;;;;;;;2.22;100.00;98895.97;5070144;28;20127;-74
2024/01/18 07:22:38;;;;;;;96.07;54.65;;;;;;;2.42;100.00;98883.88;5069775;28;20047;-74
2024/01/18 07:25:06;;;;;;;100.95;59.00;;;;;;;2.21;100.00;98892.38;5070235;28;20090;-72
2024/01/18 07:27:32;;;;;;;112.65;60.47;;;;;;;2.36;100.00;98894.16;5066144;28;20107;-72
2024/01/18 07:29:57;;;;;;;139.88;71.75;;;;;;;2.31;100.00;98888.72;5069933;28;20489;-71
2024/01/18 07:32:23;;;;;;;117.47;63.35;;;;;;;2.33;100.00;98892.00;5069789;28;20099;-74
2024/01/18 07:34:49;;;;;;;120.93;66.32;;;;;;;2.10;100.00;98880.66;5057545;28;20482;-73
2024/01/18 07:37:14;;;;;;;88.03;50.00;;;;;;;1.81;100.00;98884.28;5033185;28;20021;-72
2024/01/18 07:39:40;;;;;;;79.47;46.15;;;;;;;2.01;100.00;98882.41;5033749;28;20028;-73
2024/01/18 07:42:07;;;;;;;84.30;47.00;;;;;;;1.95;100.00;98884.41;5050713;28;20033;-73
2024/01/18 07:44:33;;;;;;;76.13;43.53;;;;;;;1.82;100.00;98882.31;5051720;28;20079;-73
2024/01/18 07:46:58;;;;;;;80.25;46.20;;;;;;;1.78;100.00;98868.28;5048278;28;20028;-73
2024/01/18 07:49:24;;;;;;;83.03;45.60;;;;;;;1.92;100.00;98873.13;5049985;28;20037;-73
2024/01/18 07:51:49;;;;;;;66.53;40.67;;;;;;;1.93;100.00;98863.72;5054545;28;20032;-73
2024/01/18 07:54:15;;;;;;;67.45;39.58;;;;;;;1.85;100.00;98873.47;5048876;28;20032;-73
2024/01/18 07:56:41;;;;;;;73.55;41.30;;;;;;;1.94;100.00;98884.72;5030108;28;20568;-73
2024/01/18 07:59:07;;;;;;;84.43;49.90;;;;;;;1.99;100.00;98870.84;5053486;28;20191;-70
2024/01/18 08:01:32;;;;;;;157.43;78.90;;;;;;;1.85;100.00;98867.16;5065006;28;20125;-75
2024/01/18 08:03:59;;;;;;;124.30;67.72;;;;;;;1.96;100.00;98855.69;5068571;28;20058;-72
2024/01/18 08:06:25;;;;;;;98.43;51.90;;;;;;;2.20;100.00;98849.34;5068659;28;20040;-74
2024/01/18 08:08:50;;;;;;;89.88;50.70;;;;;;;2.32;100.00;98846.19;5068364;28;20555;-74
2024/01/18 08:11:16;;;;;;;79.30;44.70;;;;;;;2.47;100.00;98847.09;5050728;28;20036;-73
2024/01/18 08:13:41;;;;;;;93.40;51.92;;;;;;;2.52;100.00;98841.50;5050796;28;20038;-73
2024/01/18 08:16:07;;;;;;;92.25;55.03;;;;;;;2.72;100.00;98836.81;5067577;28;20028;-75
2024/01/18 08:18:33;;;;;;;93.63;54.35;;;;;;;2.91;100.00;98831.28;5048757;28;20117;-74
2024/01/18 08:20:58;;;;;;;86.28;52.90;;;;;;;2.95;100.00;98833.16;5063994;28;20032;-73
2024/01/18 08:23:24;;;;;;;83.93;48.65;;;;;;;2.98;100.00;98831.75;5068846;28;20549;-74
2024/01/18 08:25:50;;;;;;;85.18;50.05;;;;;;;3.08;100.00;98830.75;5050827;28;20062;-71
2024/01/18 08:28:17;;;;;;;80.63;47.42;;;;;;;3.21;100.00;98813.41;5068658;28;20054;-70
2024/01/18 08:30:46;;;;;;;88.20;51.95;;;;;;;3.19;100.00;98804.59;5066029;28;20064;-71
2024/01/18 08:33:18;;;;;;;99.40;55.38;;;;;;;3.19;100.00;98776.94;5053980;28;20035;-72
2024/01/18 08:35:44;;;;;;;96.47;53.15;;;;;;;3.15;100.00;98784.22;5035034;28;20045;-70
2024/01/18 08:38:09;;;;;;;101.60;55.55;;;;;;;3.23;100.00;98772.44;5056124;28;20035;-72
2024/01/18 08:40:36;;;;;;;164.65;76.32;;;;;;;3.33;100.00;98748.53;5064699;28;20056;-70
2024/01/18 08:43:01;;;;;;;98.88;55.60;;;;;;;3.45;100.00;98742.50;5066875;28;20094;-72
2024/01/18 08:45:29;;;;;;;104.63;57.90;;;;;;;3.50;100.00;98740.47;5048549;28;20024;-72
2024/01/18 08:47:54;;;;;;;111.78;57.80;;;;;;;3.57;100.00;98730.94;5066669;28;20111;-71
2024/01/18 08:50:20;;;;;;;88.57;50.53;;;;;;;3.63;100.00;98702.06;5050126;28;20111;-75
2024/01/18 08:52:46;;;;;;;85.28;46.00;;;;;;;3.62;100.00;98678.28;5048886;28;20021;-72
2024/01/18 08:55:12;;;;;;;88.60;45.28;;;;;;;3.47;100.00;98683.00;5063252;28;20032;-72
2024/01/18 08:57:38;;;;;;;84.10;46.42;;;;;;;3.58;100.00;98685.56;5064314;28;20143;-72
2024/01/18 09:00:05;;;;;;;77.72;44.50;;;;;;;3.53;100.00;98672.66;5057385;28;20021;-72
2024/01/18 09:02:30;;;;;;;79.18;43.65;;;;;;;3.63;100.00;98668.88;5043874;28;20031;-72
2024/01/18 09:04:56;;;;;;;72.22;44.83;;;;;;;3.80;100.00;98659.91;5047836;28;20033;-71
2024/01/18 09:07:23;;;;;;;81.57;45.22;;;;;;;3.68;100.00;98666.00;5039318;28;20587;-71
2024/01/18 09:09:49;;;;;;;82.43;46.53;;;;;;;3.83;100.00;98658.50;5055623;28;20052;-72
2024/01/18 09:12:15;;;;;;;212.32;97.60;;;;;;;3.54;100.00;98674.28;5063263;28;20083;-71
2024/01/18 09:14:42;;;;;;;123.55;62.58;;;;;;;3.72;100.00;98667.00;5044756;28;20024;-72
2024/01/18 09:17:09;;;;;;;85.72;49.60;;;;;;;3.86;100.00;98682.75;5062706;28;20036;-70
2024/01/18 09:19:35;;;;;;;67.68;40.10;;;;;;;3.94;100.00;98679.28;5053939;28;20075;-72
2024/01/18 09:22:01;;;;;;;59.15;37.25;;;;;;;3.89;100.00;98682.16;5048886;28;20090;-71
2024/01/18 09:24:26;;;;;;;60.78;35.40;;;;;;;3.64;100.00;98681.56;5058296;28;20497;-72
2024/01/18 09:26:52;;;;;;;62.40;40.53;;;;;;;3.76;100.00;98665.28;5068933;28;20024;-69
2024/01/18 09:29:17;;;;;;;53.28;31.83;;;;;;;3.89;100.00;98660.03;5062031;28;20509;-72
2024/01/18 09:31:43;;;;;;;52.92;31.70;;;;;;;3.73;100.00;98668.63;5048825;28;20481;-70
2024/01/18 09:34:10;;;;;;;57.65;33.38;;;;;;;3.44;100.00;98678.09;5049988;28;20040;-70
2024/01/18 09:36:36;;;;;;;58.13;33.92;;;;;;;3.50;100.00;98682.41;5064858;28;20052;-71
2024/01/18 09:39:01;;;;;;;65.63;33.65;;;;;;;3.71;100.00;98681.97;5063146;28;20125;-71
2024/01/18 09:41:29;;;;;;;51.05;31.27;;;;;;;3.68;100.00;98696.41;5060260;28;20065;-71
2024/01/18 09:44:01;;;;;;;55.08;31.67;;;;;;;3.85;100.00;98693.03;5047061;28;20469;-71
2024/01/18 09:46:27;;;;;;;48.50;30.63;;;;;;;4.03;100.00;98676.59;5066251;28;20116;-71
2024/01/18 09:48:53;;;;;;;70.95;34.45;;;;;;;4.22;100.00;98676.44;5052270;28;20032;-74
2024/01/18 09:51:23;;;;;;;66.82;38.33;;;;;;;4.20;100.00;98664.84;5034561;28;20081;-73
2024/01/18 09:53:54;;;;;;;76.63;41.42;;;;;;;4.27;100.00;98665.25;5044319;28;20048;-73
2024/01/18 09:56:26;;;;;;;87.50;49.63;;;;;;;4.27;100.00;98676.34;5052581;28;20045;-75
2024/01/18 09:58:52;;;;;;;71.32;39.65;;;;;;;4.11;100.00;98652.91;5046522;28;20032;-71
2024/01/18 10:01:22;;;;;;;52.60;29.95;;;;;;;4.37;100.00;98672.50;5033706;28;20024;-74
2024/01/18 10:03:49;;;;;;;87.70;47.17;;;;;;;4.17;100.00;98663.56;5047588;28;20029;-72
2024/01/18 10:06:18;;;;;;;156.07;74.50;;;;;;;4.19;100.00;98657.69;5072279;28;20270;-68
2024/01/18 10:08:49;;;;;;;72.70;41.85;;;;;;;4.24;100.00;98660.34;5072166;28;20016;-71
2024/01/18 10:11:14;;;;;;;;;;;;;;;4.18;100.00;98656.88;5056050;28;20107;-70
2024/01/18 10:13:57;;;;;;;81.47;47.35;;;;;;;4.04;100.00;98647.78;5047137;28;19916;-69
2024/01/18 10:16:35;;;;;;;168.80;84.00;;;;;;;4.13;100.00;98642.34;5070941;28;20087;-71
2024/01/18 10:19:18;;;;;;;78.40;45.95;;;;;;;4.20;100.00;98632.47;5053425;28;20513;-70
2024/01/18 10:21:46;;;;;;;68.82;41.65;;;;;;;4.26;100.00;98637.88;5071386;28;20446;-70
2024/01/18 10:24:13;;;;;;;217.60;105.38;;;;;;;4.26;100.00;98624.88;5052000;28;20040;-69
2024/01/18 10:26:39;;;;;;;178.85;89.70;;;;;;;4.35;100.00;98617.44;5060015;28;20033;-73
2024/01/18 10:29:12;;;;;;;78.47;47.10;;;;;;;4.53;100.00;98627.84;5063923;28;20024;-72
2024/01/18 10:31:41;;;;;;;163.32;86.57;;;;;;;4.72;100.00;98609.03;5033444;28;20044;-69
2024/01/18 10:34:07;;;;;;;84.03;48.67;;;;;;;4.83;100.00;98609.59;5051181;28;20024;-70
2024/01/18 10:36:33;;;;;;;64.47;39.53;;;;;;;4.87;100.00;98590.38;5051080;28;20021;-72
2024/01/18 10:38:59;;;;;;;57.80;34.42;;;;;;;5.08;100.00;98587.88;5052934;28;20094;-70
2024/01/18 10:41:25;;;;;;;54.03;30.80;;;;;;;5.31;100.00;98590.56;5061670;28;20048;-71
2024/01/18 10:43:50;;;;;;;50.67;32.00;;;;;;;5.50;100.00;98581.13;5070347;28;20408;-73
2024/01/18 10:46:17;;;;;;;49.63;30.55;;;;;;;5.69;100.00;98584.44;5070011;28;20035;-72
2024/01/18 10:48:49;;;;;;;52.63;30.65;;;;;;;5.86;100.00;98563.41;5069343;28;20489;-74
2024/01/18 10:51:15;;;;;;;42.25;27.75;;;;;;;6.15;100.00;98550.84;5063943;28;20040;-74
2024/01/18 10:53:43;;;;;;;74.60;59.17;;;;;;;6.50;100.00;98544.44;5060100;28;20397;-70
2024/01/18 10:56:09;;;;;;;43.58;25.70;;;;;;;6.80;99.54;98538.94;5059093;28;20043;-70
2024/01/18 10:58:34;;;;;;;37.30;20.98;;;;;;;7.01;97.20;98530.69;5065833;28;20032;-73
2024/01/18 11:01:00;;;;;;;33.63;21.70;;;;;;;7.21;95.66;98526.34;5048465;28;20028;-71
2024/01/18 11:03:28;;;;;;;34.33;20.13;;;;;;;6.81;92.85;98527.50;5061251;28;20028;-71
2024/01/18 11:05:53;;;;;;;36.10;22.95;;;;;;;6.66;93.35;98519.72;5064255;28;20086;-69
2024/01/18 11:08:19;;;;;;;34.40;21.35;;;;;;;7.05;92.55;98528.88;5057691;28;20501;-71
2024/01/18 11:10:46;;;;;;;38.33;22.40;;;;;;;7.32;90.98;98520.38;5063350;28;20428;-72
2024/01/18 11:13:14;;;;;;;29.23;18.80;;;;;;;7.26;84.87;98494.72;5059326;28;20029;-73